Time;durP1;ratioP1;P1;durP2;ratioP2;P2;SDS_P1;SDS_P2;PMS_P1;PMS_P2;Temp;Humidity;BMP_temperature;BMP_pressure;BME280_temperature;BME280_humidity;BME280_pressure;Samples;Min_cycle;Max_cycle;Signal;HPM_P1;HPM_P2
2021/04/08 00:00:46;;;;;;;2.73;2.10;;;;;;;2.88;57.99;99490.19;4992428;28;20523;-84
2021/04/08 00:03:59;;;;;;;3.70;2.10;;;;;;;2.79;58.58;99488.59;4978742;28;20228;-84
2021/04/08 00:06:50;;;;;;;2.67;2.10;;;;;;;2.70;58.92;99484.34;4987707;28;20223;-83
2021/04/08 00:09:49;;;;;;;2.03;1.83;;;;;;;2.78;58.51;99492.22;4975327;28;20224;-82
2021/04/08 00:12:46;;;;;;;1.97;1.87;;;;;;;2.80;58.23;99496.34;4984351;28;20227;-84
2021/04/08 00:15:51;;;;;;;3.57;1.87;;;;;;;2.79;58.19;99480.66;4995822;28;20322;-83
2021/04/08 00:18:49;;;;;;;1.93;1.73;;;;;;;2.90;58.36;99494.31;4976034;28;20303;-83
2021/04/08 00:21:44;;;;;;;1.70;1.60;;;;;;;3.05;57.81;99492.56;4979583;28;20233;-83
2021/04/08 00:24:40;;;;;;;1.50;1.40;;;;;;;3.00;57.62;99480.84;5009010;28;20235;-83
2021/04/08 00:27:38;;;;;;;2.20;1.53;;;;;;;3.22;57.64;99495.13;4988396;28;20265;-83
2021/04/08 00:30:30;;;;;;;1.77;1.67;;;;;;;3.08;57.44;99478.97;5007685;28;20230;-84
2021/04/08 00:33:13;;;;;;;1.60;1.47;;;;;;;3.23;57.12;99494.09;4994924;28;20231;-83
2021/04/08 00:35:54;;;;;;;1.47;1.30;;;;;;;3.14;57.44;99503.94;5012295;28;20294;-83
2021/04/08 00:38:49;;;;;;;3.10;1.40;;;;;;;3.07;57.93;99485.28;4974377;28;20247;-83
2021/04/08 00:41:46;;;;;;;1.23;1.13;;;;;;;3.31;57.44;99499.38;4995502;28;20227;-84
2021/04/08 00:44:39;;;;;;;1.10;1.10;;;;;;;3.26;57.65;99496.41;5027587;28;20231;-84
2021/04/08 00:47:36;;;;;;;1.63;1.20;;;;;;;3.04;58.33;99500.66;5030510;28;20238;-83
2021/04/08 00:50:28;;;;;;;1.23;1.13;;;;;;;3.16;58.31;99509.88;5041938;28;20230;-84
2021/04/08 00:53:27;;;;;;;1.30;1.20;;;;;;;3.18;58.36;99518.44;5004831;28;20226;-84
2021/04/08 00:56:15;;;;;;;1.17;1.13;;;;;;;3.29;57.75;99520.72;5032614;28;20217;-84
2021/04/08 00:59:22;;;;;;;2.03;1.20;;;;;;;3.23;58.29;99525.88;5034200;28;20231;-83
2021/04/08 01:02:16;;;;;;;1.00;1.00;;;;;;;3.08;59.20;99523.13;5047233;28;20632;-84
2021/04/08 01:05:11;;;;;;;1.13;1.07;;;;;;;3.00;59.37;99504.66;5048395;28;20487;-83
2021/04/08 01:08:02;;;;;;;0.80;0.80;;;;;;;3.18;59.81;99521.09;5019550;28;20250;-84
2021/04/08 01:10:54;;;;;;;1.00;1.00;;;;;;;3.29;60.21;99546.38;5027171;28;20226;-83
2021/04/08 01:13:54;;;;;;;1.83;1.20;;;;;;;3.12;60.94;99536.88;4999429;28;20231;-83
2021/04/08 01:17:03;;;;;;;1.20;1.10;;;;;;;3.34;60.96;99554.63;5059510;28;20267;-83
2021/04/08 01:20:23;;;;;;;1.10;1.10;;;;;;;3.20;61.67;99548.25;5028900;28;20250;-83
2021/04/08 01:23:36;;;;;;;1.17;1.07;;;;;;;3.25;62.69;99553.84;5046600;28;20218;-84
2021/04/08 01:27:10;;;;;;;1.00;1.00;;;;;;;3.10;63.13;99585.53;5045675;28;20260;-84
2021/04/08 01:30:32;;;;;;;1.00;1.00;;;;;;;3.17;64.36;99583.03;4991284;28;20231;-84
2021/04/08 01:33:30;;;;;;;1.20;1.10;;;;;;;3.09;65.24;99580.38;5004395;28;20234;-83
2021/04/08 01:36:32;;;;;;;1.23;1.10;;;;;;;3.12;65.67;99581.88;4982657;28;20230;-84
2021/04/08 01:39:19;;;;;;;1.20;1.10;;;;;;;3.04;65.86;99575.63;4990022;28;20585;-84
2021/04/08 01:42:14;;;;;;;1.00;1.00;;;;;;;2.86;65.84;99563.63;5012560;28;20230;-83
2021/04/08 01:45:15;;;;;;;1.30;1.20;;;;;;;2.92;65.85;99571.72;5075660;28;20222;-83
2021/04/08 01:48:08;;;;;;;1.27;1.00;;;;;;;2.93;65.85;99569.88;5030800;28;20219;-83
2021/04/08 01:51:07;;;;;;;1.20;1.10;;;;;;;3.16;64.97;99583.19;5066362;28;20237;-84
2021/04/08 01:54:11;;;;;;;0.93;0.93;;;;;;;3.11;64.17;99583.69;5036497;28;20260;-84
2021/04/08 01:57:12;;;;;;;1.20;1.10;;;;;;;3.04;64.24;99578.25;5002663;28;20566;-83
2021/04/08 02:00:08;;;;;;;1.10;1.10;;;;;;;3.13;64.06;99583.53;5048070;28;20276;-83
2021/04/08 02:03:02;;;;;;;1.00;1.00;;;;;;;3.21;63.44;99592.25;5061812;28;20295;-84
2021/04/08 02:05:50;;;;;;;1.40;1.30;;;;;;;3.19;63.18;99591.59;5077541;28;20260;-83
2021/04/08 02:08:56;;;;;;;1.10;1.10;;;;;;;3.11;63.33;99583.69;5041945;28;20242;-84
2021/04/08 02:11:57;;;;;;;1.23;1.23;;;;;;;3.07;64.23;99598.28;5016206;28;20252;-84
2021/04/08 02:14:55;;;;;;;1.27;1.17;;;;;;;3.26;62.45;99602.34;5013429;28;20252;-83
2021/04/08 02:18:03;;;;;;;1.23;1.23;;;;;;;3.21;63.10;99617.91;4994980;28;20317;-83
2021/04/08 02:21:03;;;;;;;1.67;1.20;;;;;;;3.24;63.58;99621.03;5038678;28;20222;-84
2021/04/08 02:24:00;;;;;;;1.40;1.30;;;;;;;3.21;64.31;99623.19;5021296;28;20227;-83
2021/04/08 02:27:01;;;;;;;1.27;1.20;;;;;;;3.06;64.64;99599.28;4975305;28;20227;-83
2021/04/08 02:30:08;;;;;;;1.40;1.30;;;;;;;2.90;65.51;99613.38;5038072;28;20317;-83
2021/04/08 02:33:11;;;;;;;1.60;1.50;;;;;;;2.97;65.35;99606.44;5049408;28;20637;-83
2021/04/08 02:36:13;;;;;;;1.43;1.33;;;;;;;3.05;64.73;99598.44;5049787;28;20264;-84
2021/04/08 02:39:25;;;;;;;1.40;1.30;;;;;;;2.90;65.21;99599.31;5055578;28;20225;-83
2021/04/08 02:42:26;;;;;;;1.50;1.40;;;;;;;2.86;64.66;99590.91;5070138;28;20231;-84
2021/04/08 02:45:22;;;;;;;1.50;1.40;;;;;;;2.91;64.02;99603.63;5056993;28;20285;-83
2021/04/08 02:48:18;;;;;;;1.50;1.40;;;;;;;2.78;64.73;99614.75;5038700;28;20221;-83
2021/04/08 02:51:21;;;;;;;1.60;1.50;;;;;;;2.93;63.59;99601.66;5034149;28;20555;-83
2021/04/08 02:54:33;;;;;;;1.70;1.60;;;;;;;2.92;64.12;99619.34;5034228;28;20598;-83
2021/04/08 02:57:44;;;;;;;1.50;1.40;;;;;;;2.96;63.37;99612.72;5034124;28;20252;-83
2021/04/08 03:01:00;;;;;;;1.47;1.37;;;;;;;3.06;62.59;99623.09;4997855;28;20306;-84
2021/04/08 03:03:57;;;;;;;1.60;1.50;;;;;;;2.84;63.28;99608.78;4988404;28;20282;-84
2021/04/08 03:06:44;;;;;;;1.60;1.50;;;;;;;2.85;63.14;99609.59;4996105;28;20233;-84
2021/04/08 03:09:50;;;;;;;1.63;1.53;;;;;;;3.02;63.38;99629.72;5026765;28;20229;-84
2021/04/08 03:12:42;;;;;;;1.43;1.33;;;;;;;3.20;63.35;99638.25;5032268;28;20280;-83
2021/04/08 03:15:37;;;;;;;1.70;1.60;;;;;;;3.03;64.01;99621.59;5032841;28;20226;-83
2021/04/08 03:18:35;;;;;;;1.90;1.80;;;;;;;2.99;63.69;99615.00;5034776;28;20229;-83
2021/04/08 03:21:34;;;;;;;2.10;2.00;;;;;;;3.07;63.90;99607.06;4991583;28;20231;-84
2021/04/08 03:24:36;;;;;;;1.93;1.83;;;;;;;2.85;64.14;99601.66;4988923;28;20227;-85
2021/04/08 03:27:27;;;;;;;2.07;1.97;;;;;;;2.85;64.66;99615.72;4995398;28;20254;-84
2021/04/08 03:30:24;;;;;;;2.13;2.03;;;;;;;2.91;63.98;99593.03;4978505;28;20222;-83
2021/04/08 03:33:29;;;;;;;1.83;1.73;;;;;;;2.91;63.41;99614.22;4982462;28;20207;-85
2021/04/08 03:36:30;;;;;;;2.20;2.10;;;;;;;2.98;63.23;99607.25;4996181;28;20235;-84
2021/04/08 03:39:25;;;;;;;2.50;2.30;;;;;;;2.93;62.89;99612.22;4980953;28;20222;-84
2021/04/08 03:42:26;;;;;;;2.40;2.20;;;;;;;3.07;62.51;99622.09;4999304;28;20219;-83
2021/04/08 03:45:39;;;;;;;2.33;2.20;;;;;;;2.94;63.10;99624.47;5030297;28;20284;-83
2021/04/08 03:48:33;;;;;;;2.63;2.43;;;;;;;2.94;63.16;99656.25;5027708;28;20684;-83
2021/04/08 03:51:28;;;;;;;2.97;2.63;;;;;;;2.86;63.27;99640.34;5016027;28;20223;-83
2021/04/08 03:54:27;;;;;;;3.53;3.23;;;;;;;3.05;62.68;99632.84;5014485;28;20226;-83
2021/04/08 03:57:28;;;;;;;3.80;3.40;;;;;;;2.87;63.27;99628.78;5011422;28;20253;-83
2021/04/08 04:00:26;;;;;;;4.23;3.60;;;;;;;2.96;63.09;99657.69;4994504;28;20219;-84
2021/04/08 04:03:30;;;;;;;4.70;3.83;;;;;;;2.88;63.23;99656.91;5026724;28;20219;-83
2021/04/08 04:06:35;;;;;;;3.97;3.60;;;;;;;2.75;63.29;99616.94;4997649;28;20536;-83
2021/04/08 04:09:36;;;;;;;3.50;3.20;;;;;;;2.85;62.55;99641.34;5013280;28;20238;-83
2021/04/08 04:12:36;;;;;;;3.93;3.50;;;;;;;2.79;62.61;99655.28;4995106;28;20234;-84
2021/04/08 04:15:42;;;;;;;4.07;3.63;;;;;;;2.74;61.97;99615.28;4994310;28;20631;-83
2021/04/08 04:18:36;;;;;;;4.60;3.27;;;;;;;2.68;62.82;99637.94;5026905;28;20227;-83
2021/04/08 04:21:35;;;;;;;4.23;3.67;;;;;;;2.64;62.26;99632.16;5028810;28;20670;-83
2021/04/08 04:24:29;;;;;;;3.90;3.50;;;;;;;2.78;61.80;99632.44;4999616;28;20326;-84
2021/04/08 04:27:10;;;;;;;3.70;3.10;;;;;;;2.84;61.37;99660.88;5041619;28;20219;-84
2021/04/08 04:30:05;;;;;;;3.30;3.00;;;;;;;2.90;60.20;99642.50;5017912;28;20587;-82
2021/04/08 04:33:05;;;;;;;3.73;3.23;;;;;;;2.97;59.45;99664.66;4986046;28;20319;-84
2021/04/08 04:36:00;;;;;;;4.73;3.13;;;;;;;2.96;60.30;99667.47;5002609;28;20326;-83
2021/04/08 04:38:54;;;;;;;3.37;3.07;;;;;;;2.98;60.09;99682.19;4943218;29;20230;-84
2021/04/08 04:41:54;;;;;;;3.60;3.30;;;;;;;2.94;60.04;99677.41;4932359;29;20220;-83
2021/04/08 04:44:53;;;;;;;3.53;3.23;;;;;;;2.97;58.86;99685.81;4965122;29;20233;-83
2021/04/08 04:47:50;;;;;;;3.17;2.83;;;;;;;3.22;57.90;99694.50;4962587;28;20240;-83
2021/04/08 04:50:47;;;;;;;3.57;3.27;;;;;;;3.29;57.29;99682.25;4952621;28;20233;-82
2021/04/08 04:53:49;;;;;;;3.50;2.73;;;;;;;3.18;57.86;99693.19;4964580;28;20311;-85
2021/04/08 04:56:48;;;;;;;3.50;3.07;;;;;;;3.27;56.99;99705.41;4945915;29;20234;-84
2021/04/08 04:59:59;;;;;;;4.30;3.10;;;;;;;3.31;56.45;99674.13;4938484;29;20284;-83
2021/04/08 05:02:45;;;;;;;4.00;3.40;;;;;;;3.55;54.97;99697.84;4950273;28;20299;-84
2021/04/08 05:05:44;;;;;;;4.67;2.83;;;;;;;3.69;54.92;99706.88;4974599;28;20232;-83
2021/04/08 05:08:40;;;;;;;3.90;3.40;;;;;;;3.76;54.94;99715.81;4957859;28;20293;-84
2021/04/08 05:11:21;;;;;;;3.63;3.00;;;;;;;3.81;54.63;99719.59;4965994;29;20248;-84
2021/04/08 05:14:12;;;;;;;3.80;2.87;;;;;;;3.85;53.90;99722.69;4938631;29;20737;-84
2021/04/08 05:17:08;;;;;;;3.67;2.90;;;;;;;4.01;53.33;99708.53;4918045;29;20256;-84
2021/04/08 05:20:04;;;;;;;5.10;3.50;;;;;;;4.16;53.18;99720.00;4936540;29;20228;-84
2021/04/08 05:23:05;;;;;;;5.00;2.80;;;;;;;4.27;52.18;99724.94;4953506;29;20261;-83
2021/04/08 05:26:00;;;;;;;5.07;2.97;;;;;;;4.18;52.13;99707.41;4940410;29;20236;-84
2021/04/08 05:28:42;;;;;;;4.77;3.00;;;;;;;4.33;52.15;99737.50;4951409;29;20594;-83
2021/04/08 05:31:35;;;;;;;3.23;2.93;;;;;;;4.50;51.54;99754.09;4953530;29;20319;-84
2021/04/08 05:34:34;;;;;;;3.87;2.93;;;;;;;4.50;51.19;99746.97;4939811;29;20247;-83
2021/04/08 05:37:24;;;;;;;3.30;3.00;;;;;;;4.54;51.53;99758.88;4940402;29;20259;-83
2021/04/08 05:40:01;;;;;;;5.23;2.90;;;;;;;4.54;51.47;99761.53;4967586;28;20725;-83
2021/04/08 05:42:52;;;;;;;3.40;2.80;;;;;;;4.60;51.27;99771.44;4916916;29;20318;-83
2021/04/08 05:45:47;;;;;;;3.43;3.00;;;;;;;4.46;52.28;99779.34;4933532;29;20253;-83
2021/04/08 05:48:41;;;;;;;3.07;2.83;;;;;;;4.75;51.98;99790.91;4917994;29;20653;-84
2021/04/08 05:51:46;;;;;;;3.23;2.73;;;;;;;4.93;52.13;99795.06;4912194;29;20283;-83
2021/04/08 05:54:31;;;;;;;5.17;2.83;;;;;;;5.00;52.77;99798.63;4950011;29;20229;-84
2021/04/08 05:57:42;;;;;;;2.70;2.50;;;;;;;5.00;52.80;99785.34;4936427;29;20266;-83
2021/04/08 06:00:35;;;;;;;2.63;2.27;;;;;;;5.10;53.56;99810.66;4896378;29;20257;-84
2021/04/08 06:03:31;;;;;;;2.97;2.73;;;;;;;5.13;53.12;99793.56;4922607;29;20230;-83
2021/04/08 06:06:18;;;;;;;2.80;2.50;;;;;;;4.98;52.92;99798.00;4943518;29;20232;-83
2021/04/08 06:08:51;;;;;;;3.03;2.73;;;;;;;5.22;52.37;99803.94;5011963;28;20285;-83
2021/04/08 06:11:31;;;;;;;2.97;2.50;;;;;;;5.39;51.28;99796.59;4988364;28;20234;-83
2021/04/08 06:14:07;;;;;;;2.20;2.10;;;;;;;5.52;51.25;99806.59;5023980;28;20297;-83
2021/04/08 06:16:44;;;;;;;3.27;2.20;;;;;;;5.91;50.67;99798.38;5016630;28;20237;-84
2021/04/08 06:19:21;;;;;;;2.77;2.40;;;;;;;6.20;49.81;99816.94;4991721;28;20219;-83
2021/04/08 06:22:04;;;;;;;2.63;2.40;;;;;;;6.31;48.86;99816.44;5011517;28;20223;-83
2021/04/08 06:24:39;;;;;;;2.60;2.40;;;;;;;6.37;48.55;99820.19;5025651;28;20781;-83
2021/04/08 06:27:15;;;;;;;3.17;2.50;;;;;;;6.21;48.51;99813.25;5026282;28;20236;-84
2021/04/08 06:30:00;;;;;;;3.73;2.60;;;;;;;6.13;47.28;99797.41;5012879;28;20234;-83
2021/04/08 06:32:43;;;;;;;3.17;2.83;;;;;;;6.27;47.56;99828.47;5009081;28;20282;-83
2021/04/08 06:35:30;;;;;;;2.70;2.40;;;;;;;6.69;46.89;99830.38;5021115;28;20231;-83
2021/04/08 06:38:08;;;;;;;3.93;2.83;;;;;;;6.69;45.72;99809.06;5008042;28;20314;-84
2021/04/08 06:40:52;;;;;;;3.10;2.80;;;;;;;6.77;45.11;99821.41;5005455;28;20231;-82
2021/04/08 06:43:43;;;;;;;3.40;2.80;;;;;;;7.27;43.65;99823.09;5034119;28;20222;-83
2021/04/08 06:46:23;;;;;;;2.83;2.40;;;;;;;7.27;43.65;99812.44;5024680;28;20249;-82
2021/04/08 06:49:17;;;;;;;3.57;3.10;;;;;;;7.51;43.12;99842.13;5019714;28;20287;-84
2021/04/08 06:52:01;;;;;;;3.37;2.73;;;;;;;7.72;42.45;99821.75;5020932;28;20230;-84
2021/04/08 06:54:46;;;;;;;3.10;2.70;;;;;;;7.93;42.51;99841.16;4992629;28;20310;-84
2021/04/08 06:57:23;;;;;;;3.27;2.80;;;;;;;7.94;41.88;99832.13;5004018;28;20566;-83
2021/04/08 06:59:51;;;;;;;4.23;2.80;;;;;;;8.02;42.63;99835.66;4990264;28;20241;-83
2021/04/08 07:02:20;;;;;;;3.23;2.70;;;;;;;7.68;42.69;99839.16;5021373;28;20238;-83
2021/04/08 07:04:47;;;;;;;4.50;2.80;;;;;;;7.25;43.52;99855.25;5006007;28;20698;-83
2021/04/08 07:07:15;;;;;;;2.80;2.60;;;;;;;7.23;44.46;99856.47;5008447;28;20231;-83
2021/04/08 07:09:44;;;;;;;3.10;2.73;;;;;;;6.93;45.02;99864.63;5025763;28;20529;-84
2021/04/08 07:12:12;;;;;;;4.30;2.60;;;;;;;6.61;45.44;99867.75;5025191;28;20242;-83
2021/04/08 07:14:40;;;;;;;3.00;2.80;;;;;;;6.59;45.37;99854.63;5025584;28;20223;-83
2021/04/08 07:17:10;;;;;;;3.30;2.67;;;;;;;6.47;45.31;99866.78;5008825;28;20218;-84
2021/04/08 07:19:39;;;;;;;4.03;3.00;;;;;;;6.45;45.50;99860.81;4999255;28;20230;-82
2021/04/08 07:22:06;;;;;;;4.47;3.10;;;;;;;6.62;45.76;99862.22;5009726;28;20245;-83
2021/04/08 07:24:46;;;;;;;3.37;3.00;;;;;;;6.46;45.96;99862.47;5025111;28;20230;-84
2021/04/08 07:27:18;;;;;;;3.03;2.70;;;;;;;6.89;45.15;99878.50;5012723;28;20230;-83
2021/04/08 07:29:52;;;;;;;2.80;2.60;;;;;;;6.91;44.98;99868.47;5030332;28;20527;-83
2021/04/08 07:32:26;;;;;;;4.90;2.80;;;;;;;7.30;43.64;99890.16;5030262;28;20645;-84
2021/04/08 07:35:22;;;;;;;4.00;2.63;;;;;;;7.22;44.75;99897.47;5028889;28;20254;-83
2021/04/08 07:38:04;;;;;;;2.97;2.63;;;;;;;7.19;43.79;99909.31;5013010;28;20313;-83
2021/04/08 07:40:43;;;;;;;3.67;2.87;;;;;;;7.25;44.15;99900.56;5025693;28;20229;-83
2021/04/08 07:43:31;;;;;;;5.63;2.80;;;;;;;7.38;44.88;99923.84;5039220;28;20225;-83
2021/04/08 07:46:38;;;;;;;3.30;2.60;;;;;;;7.77;43.20;99913.50;5025954;28;20234;-84
2021/04/08 07:49:28;;;;;;;3.40;2.50;;;;;;;8.06;42.52;99927.66;5032979;28;20237;-84
2021/04/08 07:52:25;;;;;;;2.90;2.70;;;;;;;8.23;41.72;99926.28;5031014;28;20244;-83
2021/04/08 07:55:03;;;;;;;3.17;2.60;;;;;;;8.09;41.61;99944.09;5030991;28;20230;-83
2021/04/08 07:57:55;;;;;;;3.57;2.80;;;;;;;7.50;42.77;99954.31;5018156;28;20226;-84
2021/04/08 08:00:27;;;;;;;3.70;2.90;;;;;;;7.18;41.32;99925.50;5028604;28;20234;-84
2021/04/08 08:03:07;;;;;;;4.30;2.90;;;;;;;7.34;40.65;99949.22;5013490;28;20525;-83
2021/04/08 08:05:52;;;;;;;3.20;2.90;;;;;;;7.37;41.71;99938.22;5012517;28;20231;-84
2021/04/08 08:08:51;;;;;;;8.53;3.37;;;;;;;7.42;41.12;99957.09;5031866;28;20310;-83
2021/04/08 08:11:43;;;;;;;3.57;2.87;;;;;;;7.17;41.27;99956.66;5046699;28;20515;-83
2021/04/08 08:14:31;;;;;;;4.97;2.60;;;;;;;6.97;40.50;99943.13;5016197;28;20226;-84
2021/04/08 08:17:06;;;;;;;3.30;3.00;;;;;;;6.97;41.63;99963.63;5029771;28;20257;-84
2021/04/08 08:19:40;;;;;;;4.77;3.00;;;;;;;6.97;42.67;99974.28;5020906;28;20277;-84
2021/04/08 08:22:35;;;;;;;2.60;2.27;;;;;;;6.76;41.66;99969.75;5031888;28;20253;-84
2021/04/08 08:25:23;;;;;;;3.40;2.63;;;;;;;6.75;43.15;99957.44;5063661;28;20222;-83
2021/04/08 08:28:01;;;;;;;2.97;2.73;;;;;;;6.90;43.05;99973.38;5063478;28;20320;-84
2021/04/08 08:30:53;;;;;;;3.20;2.87;;;;;;;7.03;42.67;99970.88;5015839;28;20226;-84
2021/04/08 08:33:36;;;;;;;9.13;2.93;;;;;;;7.01;42.95;99960.38;5013732;28;20295;-83
2021/04/08 08:36:20;;;;;;;5.20;3.10;;;;;;;7.28;43.62;99977.47;5007428;28;20231;-83
2021/04/08 08:38:57;;;;;;;3.60;2.80;;;;;;;7.59;42.60;99977.16;4988114;28;20408;-84
2021/04/08 08:41:41;;;;;;;8.77;3.20;;;;;;;7.20;42.25;99966.09;4999580;28;20249;-83
2021/04/08 08:44:24;;;;;;;5.33;2.80;;;;;;;7.33;42.42;99995.56;5031171;28;20259;-83
2021/04/08 08:47:17;;;;;;;3.00;2.77;;;;;;;7.11;43.48;99972.56;5048245;28;20257;-84
2021/04/08 08:50:00;;;;;;;3.13;2.57;;;;;;;7.12;44.09;99983.06;5039182;28;20497;-83
2021/04/08 08:52:44;;;;;;;2.87;2.57;;;;;;;7.06;43.26;99992.63;5012345;28;20222;-83
2021/04/08 08:55:24;;;;;;;5.03;2.50;;;;;;;7.43;43.94;99985.41;5029584;28;20576;-83
2021/04/08 08:58:03;;;;;;;2.73;2.53;;;;;;;7.13;44.24;99978.56;5016570;28;20230;-84
2021/04/08 09:00:39;;;;;;;3.97;2.90;;;;;;;6.74;46.38;99977.06;5001619;28;20253;-84
2021/04/08 09:03:09;;;;;;;4.23;2.97;;;;;;;7.00;45.96;99989.88;5012221;28;20233;-84
2021/04/08 09:05:37;;;;;;;4.73;2.40;;;;;;;6.86;43.06;99975.56;5010343;28;20223;-83
2021/04/08 09:08:14;;;;;;;3.20;2.90;;;;;;;6.90;44.13;100000.84;4993132;28;20226;-83
2021/04/08 09:10:53;;;;;;;2.83;2.30;;;;;;;6.93;43.49;99984.47;5005244;28;20230;-84
2021/04/08 09:13:21;;;;;;;3.73;2.10;;;;;;;7.03;43.48;99973.53;5017831;28;20239;-84
2021/04/08 09:15:49;;;;;;;3.27;2.40;;;;;;;7.21;44.38;100005.06;5047031;28;20647;-83
2021/04/08 09:18:20;;;;;;;2.60;2.33;;;;;;;7.34;44.40;99975.88;5014042;28;20292;-83
2021/04/08 09:20:50;;;;;;;7.10;2.30;;;;;;;7.76;42.60;99999.03;5030177;28;20256;-84
2021/04/08 09:23:21;;;;;;;3.33;2.30;;;;;;;7.67;41.83;100003.69;5030651;28;20229;-83
2021/04/08 09:25:58;;;;;;;2.70;2.50;;;;;;;7.76;41.60;100015.88;5050324;28;20224;-83
2021/04/08 09:28:46;;;;;;;3.83;2.87;;;;;;;8.18;40.28;100009.63;5037349;28;20229;-84
2021/04/08 09:31:33;;;;;;;4.00;2.40;;;;;;;8.43;39.61;99999.34;5019504;28;20218;-83
2021/04/08 09:34:10;;;;;;;2.60;2.33;;;;;;;8.16;40.03;100005.53;5041215;28;20243;-83
2021/04/08 09:36:55;;;;;;;3.53;2.30;;;;;;;8.68;38.93;100013.03;5048010;28;20222;-83
2021/04/08 09:39:44;;;;;;;2.43;2.20;;;;;;;8.50;39.19;100013.56;5018555;28;20234;-83
2021/04/08 09:42:43;;;;;;;2.30;2.10;;;;;;;8.05;39.34;100008.72;5024043;28;20222;-83
2021/04/08 09:45:56;;;;;;;2.17;2.03;;;;;;;8.09;39.21;100005.47;5024182;23;20241;-84
2021/04/08 09:49:03;;;;;;;2.43;2.13;;;;;;;8.14;38.64;100004.88;5006707;28;20313;-84
2021/04/08 09:53:09;;;;;;;2.43;2.10;;;;;;;8.34;38.27;99985.34;5105400;23;20248;-84
2021/04/08 09:56:57;;;;;;;2.40;2.13;;;;;;;8.84;36.75;100002.03;5022910;28;20242;-83
2021/04/08 10:00:12;;;;;;;3.43;2.23;;;;;;;9.50;36.48;99989.66;5029449;28;20268;-83
2021/04/08 10:03:48;;;;;;;2.90;2.10;;;;;;;9.24;36.50;99994.94;5006171;28;20286;-83
2021/04/08 10:06:29;;;;;;;3.33;2.10;;;;;;;9.38;36.07;99999.28;5018989;28;20250;-83
2021/04/08 10:09:30;;;;;;;2.53;2.27;;;;;;;9.38;36.16;99999.28;4987343;28;20302;-84
2021/04/08 10:12:41;;;;;;;2.73;1.93;;;;;;;9.82;35.48;100004.09;5012499;28;20241;-84
2021/04/08 10:15:37;;;;;;;2.20;2.00;;;;;;;9.79;35.78;100007.19;5039022;28;20201;-84
2021/04/08 10:18:48;;;;;;;2.50;2.20;;;;;;;9.98;35.25;100029.63;5030533;28;20237;-85
2021/04/08 10:21:43;;;;;;;2.67;2.20;;;;;;;9.47;35.33;100008.78;5048798;28;20226;-85
2021/04/08 10:24:41;;;;;;;2.53;2.17;;;;;;;9.56;34.93;100004.91;5031631;28;20240;-83
2021/04/08 10:28:01;;;;;;;3.37;2.50;;;;;;;9.88;34.82;100026.53;5047617;28;20226;-84
2021/04/08 10:30:58;;;;;;;2.27;2.10;;;;;;;9.63;34.38;100005.72;5030530;28;20222;-84
2021/04/08 10:33:37;;;;;;;2.40;2.20;;;;;;;9.92;34.87;100009.88;5041538;28;20244;-83
2021/04/08 10:36:11;;;;;;;2.43;2.23;;;;;;;9.76;35.29;99982.66;5050162;28;20247;-83
2021/04/08 10:39:15;;;;;;;2.70;2.50;;;;;;;10.33;34.81;100009.66;5068552;28;20651;-85
2021/04/08 10:42:13;;;;;;;4.17;2.53;;;;;;;10.37;33.55;100028.78;5059325;28;20601;-84
2021/04/08 10:44:51;;;;;;;3.27;2.10;;;;;;;10.24;34.11;100023.47;5047211;28;20237;-84
2021/04/08 10:47:26;;;;;;;2.60;2.40;;;;;;;10.51;33.63;100031.25;5044796;28;20227;-83
2021/04/08 10:49:58;;;;;;;3.40;2.17;;;;;;;10.77;33.23;100026.88;5010789;28;20234;-85
2021/04/08 10:55:33;;;;;;;2.40;2.20;;;;;;;9.65;36.29;100046.50;5031123;28;20283;-83
2021/04/08 10:58:33;;;;;;;2.57;2.10;;;;;;;9.81;36.17;100045.25;5032655;28;20199;-85
2021/04/08 11:01:35;;;;;;;3.43;2.37;;;;;;;9.86;38.71;100047.31;5031990;28;20226;-85
2021/04/08 11:04:47;;;;;;;2.70;2.50;;;;;;;9.51;37.82;100050.16;5022767;28;20237;-83
2021/04/08 11:08:02;;;;;;;4.00;2.80;;;;;;;9.49;40.42;100086.16;5071723;23;20265;-82
2021/04/08 11:10:53;;;;;;;2.80;2.30;;;;;;;9.17;41.36;100095.69;5049401;28;20582;-83
2021/04/08 11:13:46;;;;;;;3.00;2.40;;;;;;;8.29;48.16;100110.56;5019289;28;20263;-82
2021/04/08 11:16:23;;;;;;;2.83;2.23;;;;;;;8.02;50.29;100107.84;5033784;28;20400;-82
2021/04/08 11:19:31;;;;;;;2.47;2.20;;;;;;;7.32;52.06;100103.22;5022670;28;20187;-82
2021/04/08 11:22:57;;;;;;;2.50;2.30;;;;;;;7.22;50.67;100095.50;5044197;23;20232;-83
2021/04/08 11:25:36;;;;;;;3.00;2.10;;;;;;;7.55;51.13;100063.06;5052612;28;20245;-82
2021/04/08 11:28:26;;;;;;;2.30;2.10;;;;;;;8.09;46.41;100082.84;5035888;28;20210;-82
2021/04/08 11:31:34;;;;;;;2.77;2.37;;;;;;;9.27;43.22;100072.09;4918412;29;20221;-82
2021/04/08 11:34:35;;;;;;;2.53;2.33;;;;;;;10.05;40.57;100070.59;4944292;29;20229;-82
2021/04/08 11:37:21;;;;;;;2.43;2.00;;;;;;;9.84;38.39;100062.78;4950546;29;20702;-83
2021/04/08 11:40:12;;;;;;;4.27;2.00;;;;;;;10.49;35.24;100054.75;4952144;29;20233;-84
2021/04/08 11:43:56;;;;;;;2.47;2.27;;;;;;;10.75;34.58;100059.22;4935449;29;20276;-84
2021/04/08 11:46:36;;;;;;;2.60;2.40;;;;;;;10.67;35.45;100054.09;4948357;29;20221;-83
2021/04/08 11:49:22;;;;;;;2.90;2.60;;;;;;;10.22;36.68;100055.00;4962638;29;20251;-83
2021/04/08 11:52:34;;;;;;;3.00;2.70;;;;;;;9.28;39.02;100053.16;4947542;29;20684;-83
2021/04/08 11:55:17;;;;;;;2.77;2.53;;;;;;;8.87;39.43;100067.59;4930167;29;20236;-82
2021/04/08 11:58:36;;;;;;;2.93;2.63;;;;;;;8.74;39.38;100057.66;4968199;23;20581;-83
2021/04/08 12:01:42;;;;;;;3.20;2.90;;;;;;;8.79;40.50;100024.00;4970177;28;20269;-83
2021/04/08 12:04:49;;;;;;;3.30;3.00;;;;;;;9.15;39.64;100060.31;4988779;28;20251;-83
2021/04/08 12:07:46;;;;;;;3.90;2.77;;;;;;;9.58;39.36;100061.69;4990336;28;20228;-83
2021/04/08 12:10:32;;;;;;;3.47;2.63;;;;;;;9.93;38.42;100070.41;4989286;28;20255;-83
2021/04/08 12:13:22;;;;;;;3.00;2.50;;;;;;;9.69;35.31;100062.94;4998770;23;20223;-83
2021/04/08 12:16:30;;;;;;;3.37;3.07;;;;;;;8.70;44.08;100085.78;4964613;28;20235;-82
2021/04/08 12:19:34;;;;;;;3.57;3.10;;;;;;;7.55;50.37;100108.38;4970438;29;20297;-83
2021/04/08 12:22:26;;;;;;;2.20;2.00;;;;;;;7.21;51.92;100111.66;4970421;28;20315;-82
2021/04/08 12:25:38;;;;;;;2.70;2.37;;;;;;;6.51;53.27;100117.47;4952899;29;20209;-82
2021/04/08 12:28:32;;;;;;;3.17;2.40;;;;;;;6.68;53.18;100107.47;4952995;29;20273;-82
2021/04/08 12:31:32;;;;;;;2.83;2.63;;;;;;;7.07;54.20;100127.50;4954463;29;20233;-82
2021/04/08 12:34:05;;;;;;;3.00;2.40;;;;;;;6.52;56.65;100129.75;4993404;23;20231;-81
2021/04/08 12:36:42;;;;;;;2.93;2.73;;;;;;;6.15;60.37;100133.25;5032336;23;20235;-83
2021/04/08 12:39:14;;;;;;;3.00;2.60;;;;;;;6.46;58.27;100133.97;5022996;23;20286;-82
2021/04/08 12:41:44;;;;;;;2.53;2.00;;;;;;;5.83;58.31;100114.88;4983704;28;20273;-82
2021/04/08 12:44:28;;;;;;;2.40;2.20;;;;;;;5.89;58.31;100115.00;4987997;28;20236;-82
2021/04/08 12:46:59;;;;;;;3.30;2.17;;;;;;;6.08;57.62;100130.47;5000132;23;20274;-82
2021/04/08 12:49:28;;;;;;;3.23;2.93;;;;;;;5.94;58.20;100128.59;4973088;28;20227;-83
2021/04/08 12:52:02;;;;;;;3.30;3.00;;;;;;;6.15;57.94;100122.63;5024847;28;20219;-83
2021/04/08 12:54:35;;;;;;;3.27;2.73;;;;;;;6.00;56.95;100121.72;5019142;23;20261;-81
2021/04/08 12:57:05;;;;;;;3.37;2.50;;;;;;;6.18;55.31;100108.94;4967113;28;20223;-82
2021/04/08 12:59:33;;;;;;;2.60;2.40;;;;;;;6.41;53.93;100107.06;4950898;29;20213;-83
2021/04/08 13:02:02;;;;;;;2.47;1.93;;;;;;;6.71;51.29;100107.94;4978435;23;20235;-83
2021/04/08 13:04:41;;;;;;;2.90;2.67;;;;;;;7.07;51.04;100103.50;4956147;28;20220;-82
2021/04/08 13:07:46;;;;;;;3.00;2.70;;;;;;;7.09;48.81;100084.69;4987244;28;20598;-82
2021/04/08 13:10:28;;;;;;;3.23;2.73;;;;;;;7.55;47.25;100097.72;5005893;23;20236;-83
2021/04/08 13:16:40;;;;;;;2.63;2.27;;;;;;;8.11;42.57;100082.66;4972169;28;20208;-83
2021/04/08 13:19:32;;;;;;;3.27;2.60;;;;;;;8.18;42.76;100089.69;4984853;28;20232;-82
2021/04/08 13:22:42;;;;;;;4.23;2.40;;;;;;;8.55;40.32;100082.41;4999004;28;20231;-82
2021/04/08 13:25:35;;;;;;;2.90;2.60;;;;;;;8.73;40.00;100072.88;5020553;23;20229;-83
2021/04/08 13:28:28;;;;;;;2.70;2.30;;;;;;;8.98;40.29;100064.38;4989553;28;20536;-83
2021/04/08 13:31:29;;;;;;;3.20;2.60;;;;;;;9.64;38.46;100070.75;5005858;28;20235;-83
2021/04/08 13:35:01;;;;;;;2.53;2.33;;;;;;;10.12;34.42;100071.44;4988112;28;20234;-83
2021/04/08 13:37:43;;;;;;;2.57;2.37;;;;;;;10.55;34.00;100082.53;5013411;28;20227;-84
2021/04/08 13:40:49;;;;;;;3.67;2.43;;;;;;;10.41;34.99;100089.78;5024671;28;20223;-83
2021/04/08 13:43:38;;;;;;;4.37;2.80;;;;;;;9.73;36.88;100105.16;5013038;28;20202;-83